VEPU weather

Public forecast

Using degrees Celsius for public forecast. Weather courtesy of forecast.io.

Closest aviation weather report (METAR) to Purnea Airport

Closest report is Bagdogra Airport, 74.2 nm (137.5 km) NE. Retrieved 2020/08/14 07:30 UTC (12 minutes ago):

VEBD 140730Z 12003KT 6000 SCT025 SCT050 34/24 Q0999 NOSIG

Closest aviation forecast (TAF) to Purnea Airport

Closest forecast is Bagdogra Airport, 74.2 nm (137.5 km) NE. Retrieved 2020/08/14 06:30 UTC (1 hour ago):

TAF VEBD 140330Z 1406/1418 10005KT 6000 SCT025 SCT090 TEMPO 1413/1415 3000 TSRA SCT025 FEW CB 030 BKN090